sensor_id;sensor_type;location;lat;lon;timestamp;pressure;altitude;pressure_sealevel;temperature;humidity
58295;BME280;45705;55.592;37.460;2023-04-16T00:00:58;100611.69;;;3.48;31.51
58295;BME280;45705;55.592;37.460;2023-04-16T00:03:24;100606.22;;;3.37;31.59
58295;BME280;45705;55.592;37.460;2023-04-16T00:05:50;100606.22;;;3.37;31.52
58295;BME280;45705;55.592;37.460;2023-04-16T00:08:21;100612.88;;;3.34;31.77
58295;BME280;45705;55.592;37.460;2023-04-16T00:10:49;100618.56;;;3.26;31.91
58295;BME280;45705;55.592;37.460;2023-04-16T00:13:15;100616.59;;;3.33;31.55
58295;BME280;45705;55.592;37.460;2023-04-16T00:15:41;100608.41;;;3.28;31.99
58295;BME280;45705;55.592;37.460;2023-04-16T00:18:07;100616.47;;;3.28;31.99
58295;BME280;45705;55.592;37.460;2023-04-16T00:20:33;100626.63;;;3.26;32.03
58295;BME280;45705;55.592;37.460;2023-04-16T00:22:58;100617.72;;;3.25;32.12
58295;BME280;45705;55.592;37.460;2023-04-16T00:25:24;100624.22;;;3.18;32.31
58295;BME280;45705;55.592;37.460;2023-04-16T00:27:49;100618.84;;;3.18;32.17
58295;BME280;45705;55.592;37.460;2023-04-16T00:30:15;100612.75;;;3.10;32.36
58295;BME280;45705;55.592;37.460;2023-04-16T00:32:41;100606.44;;;2.98;32.48
58295;BME280;45705;55.592;37.460;2023-04-16T00:35:07;100616.28;;;3.04;32.54
58295;BME280;45705;55.592;37.460;2023-04-16T00:37:33;100616.44;;;2.91;32.59
58295;BME280;45705;55.592;37.460;2023-04-16T00:39:59;100621.16;;;2.95;32.73
58295;BME280;45705;55.592;37.460;2023-04-16T00:42:25;100607.50;;;2.97;32.67
58295;BME280;45705;55.592;37.460;2023-04-16T00:44:51;100613.75;;;2.91;32.85
58295;BME280;45705;55.592;37.460;2023-04-16T00:47:18;100612.22;;;2.76;33.39
58295;BME280;45705;55.592;37.460;2023-04-16T00:49:44;100612.59;;;2.80;33.20
58295;BME280;45705;55.592;37.460;2023-04-16T00:52:11;100617.38;;;2.78;33.30
58295;BME280;45705;55.592;37.460;2023-04-16T00:54:36;100613.28;;;2.75;33.36
58295;BME280;45705;55.592;37.460;2023-04-16T00:57:02;100621.78;;;2.72;33.17
58295;BME280;45705;55.592;37.460;2023-04-16T00:59:29;100620.50;;;2.75;33.06
58295;BME280;45705;55.592;37.460;2023-04-16T01:01:55;100608.06;;;2.81;33.05
58295;BME280;45705;55.592;37.460;2023-04-16T01:04:21;100611.03;;;2.72;33.25
58295;BME280;45705;55.592;37.460;2023-04-16T01:06:46;100618.19;;;2.79;33.32
58295;BME280;45705;55.592;37.460;2023-04-16T01:09:13;100606.97;;;2.63;33.46
58295;BME280;45705;55.592;37.460;2023-04-16T01:11:38;100618.47;;;2.70;33.36
58295;BME280;45705;55.592;37.460;2023-04-16T01:14:04;100611.91;;;2.66;33.28
58295;BME280;45705;55.592;37.460;2023-04-16T01:16:31;100607.44;;;2.60;33.44
58295;BME280;45705;55.592;37.460;2023-04-16T01:18:57;100606.72;;;2.46;33.93
58295;BME280;45705;55.592;37.460;2023-04-16T01:21:22;100611.03;;;2.47;33.87
58295;BME280;45705;55.592;37.460;2023-04-16T01:23:48;100607.34;;;2.42;33.78
58295;BME280;45705;55.592;37.460;2023-04-16T01:26:14;100612.91;;;2.47;33.82
58295;BME280;45705;55.592;37.460;2023-04-16T01:28:40;100604.06;;;2.40;34.18
58295;BME280;45705;55.592;37.460;2023-04-16T01:31:06;100608.06;;;2.30;34.08
58295;BME280;45705;55.592;37.460;2023-04-16T01:33:47;100609.72;;;2.31;34.22
58295;BME280;45705;55.592;37.460;2023-04-16T01:36:13;100598.53;;;2.34;34.08
58295;BME280;45705;55.592;37.460;2023-04-16T01:38:39;100610.50;;;2.39;33.95
58295;BME280;45705;55.592;37.460;2023-04-16T01:41:04;100604.84;;;2.47;34.08
58295;BME280;45705;55.592;37.460;2023-04-16T01:43:30;100615.84;;;2.39;34.29
58295;BME280;45705;55.592;37.460;2023-04-16T01:46:12;100609.25;;;2.34;34.12
58295;BME280;45705;55.592;37.460;2023-04-16T01:48:39;100611.25;;;2.46;33.98
58295;BME280;45705;55.592;37.460;2023-04-16T01:51:05;100603.47;;;2.38;34.22
58295;BME280;45705;55.592;37.460;2023-04-16T01:53:31;100593.94;;;2.42;34.34
58295;BME280;45705;55.592;37.460;2023-04-16T01:55:56;100602.47;;;2.32;34.27
58295;BME280;45705;55.592;37.460;2023-04-16T01:58:22;100605.53;;;2.35;34.39
58295;BME280;45705;55.592;37.460;2023-04-16T02:00:48;100615.06;;;2.31;34.64
58295;BME280;45705;55.592;37.460;2023-04-16T02:03:14;100604.75;;;2.28;34.94
58295;BME280;45705;55.592;37.460;2023-04-16T02:05:42;100616.38;;;2.22;34.68
58295;BME280;45705;55.592;37.460;2023-04-16T02:08:07;100614.75;;;2.21;34.81
58295;BME280;45705;55.592;37.460;2023-04-16T02:10:34;100616.19;;;2.17;35.02
58295;BME280;45705;55.592;37.460;2023-04-16T02:13:00;100611.09;;;2.09;35.02
58295;BME280;45705;55.592;37.460;2023-04-16T02:15:25;100621.22;;;2.07;35.29
58295;BME280;45705;55.592;37.460;2023-04-16T02:17:51;100617.75;;;2.00;35.60
58295;BME280;45705;55.592;37.460;2023-04-16T02:20:22;100614.91;;;1.94;35.65
58295;BME280;45705;55.592;37.460;2023-04-16T02:22:53;100615.72;;;1.95;35.88
58295;BME280;45705;55.592;37.460;2023-04-16T02:25:21;100622.34;;;1.92;35.89
58295;BME280;45705;55.592;37.460;2023-04-16T02:27:51;100621.06;;;2.02;35.77
58295;BME280;45705;55.592;37.460;2023-04-16T02:30:38;100623.97;;;1.93;36.23
58295;BME280;45705;55.592;37.460;2023-04-16T02:33:07;100619.47;;;1.87;36.20
58295;BME280;45705;55.592;37.460;2023-04-16T02:35:34;100622.75;;;1.89;36.37
58295;BME280;45705;55.592;37.460;2023-04-16T02:38:01;100631.00;;;1.88;36.39
58295;BME280;45705;55.592;37.460;2023-04-16T02:40:28;100625.28;;;1.84;36.69
58295;BME280;45705;55.592;37.460;2023-04-16T02:42:54;100622.81;;;1.76;36.69
58295;BME280;45705;55.592;37.460;2023-04-16T02:45:20;100620.34;;;1.81;36.67
58295;BME280;45705;55.592;37.460;2023-04-16T02:47:46;100619.06;;;1.90;36.65
58295;BME280;45705;55.592;37.460;2023-04-16T02:50:12;100624.22;;;1.85;37.04
58295;BME280;45705;55.592;37.460;2023-04-16T02:52:38;100617.84;;;1.86;36.94
58295;BME280;45705;55.592;37.460;2023-04-16T02:55:04;100625.69;;;1.81;37.05
58295;BME280;45705;55.592;37.460;2023-04-16T02:57:31;100627.78;;;1.79;37.12
58295;BME280;45705;55.592;37.460;2023-04-16T02:59:57;100632.53;;;1.77;37.04
58295;BME280;45705;55.592;37.460;2023-04-16T03:02:23;100633.94;;;1.86;37.10
58295;BME280;45705;55.592;37.460;2023-04-16T03:04:49;100632.28;;;1.85;37.36
58295;BME280;45705;55.592;37.460;2023-04-16T03:07:15;100628.94;;;1.90;37.17
58295;BME280;45705;55.592;37.460;2023-04-16T03:09:42;100620.06;;;1.89;36.93
58295;BME280;45705;55.592;37.460;2023-04-16T03:12:08;100624.81;;;1.94;37.18
58295;BME280;45705;55.592;37.460;2023-04-16T03:14:34;100630.34;;;1.99;37.09
58295;BME280;45705;55.592;37.460;2023-04-16T03:17:00;100623.91;;;2.07;37.13
58295;BME280;45705;55.592;37.460;2023-04-16T03:19:25;100630.31;;;2.06;37.08
58295;BME280;45705;55.592;37.460;2023-04-16T03:21:51;100633.25;;;2.29;36.84
58295;BME280;45705;55.592;37.460;2023-04-16T03:24:17;100624.16;;;2.30;36.42
58295;BME280;45705;55.592;37.460;2023-04-16T03:26:42;100631.31;;;2.68;36.06
58295;BME280;45705;55.592;37.460;2023-04-16T03:29:09;100626.31;;;3.15;35.01
58295;BME280;45705;55.592;37.460;2023-04-16T03:31:35;100625.59;;;3.45;34.04
58295;BME280;45705;55.592;37.460;2023-04-16T03:34:00;100625.44;;;3.89;33.66
58295;BME280;45705;55.592;37.460;2023-04-16T03:36:26;100626.94;;;4.03;32.94
58295;BME280;45705;55.592;37.460;2023-04-16T03:38:53;100614.91;;;4.83;32.00
58295;BME280;45705;55.592;37.460;2023-04-16T03:41:18;100621.91;;;5.31;31.22
58295;BME280;45705;55.592;37.460;2023-04-16T03:43:44;100611.53;;;6.38;29.53
58295;BME280;45705;55.592;37.460;2023-04-16T03:46:10;100608.50;;;6.68;29.19
58295;BME280;45705;55.592;37.460;2023-04-16T03:48:36;100600.09;;;8.19;27.26
58295;BME280;45705;55.592;37.460;2023-04-16T03:51:02;100599.00;;;8.42;26.38
58295;BME280;45705;55.592;37.460;2023-04-16T03:53:28;100606.59;;;9.25;25.46
58295;BME280;45705;55.592;37.460;2023-04-16T03:55:54;100605.16;;;9.65;24.70
58295;BME280;45705;55.592;37.460;2023-04-16T03:58:20;100601.19;;;11.07;23.11
58295;BME280;45705;55.592;37.460;2023-04-16T04:00:46;100595.19;;;11.15;22.99
58295;BME280;45705;55.592;37.460;2023-04-16T04:03:14;100596.13;;;11.55;22.42
58295;BME280;45705;55.592;37.460;2023-04-16T04:05:44;100595.28;;;12.19;21.70
58295;BME280;45705;55.592;37.460;2023-04-16T04:08:13;100598.84;;;12.49;21.29
58295;BME280;45705;55.592;37.460;2023-04-16T04:10:39;100595.13;;;11.95;21.44
58295;BME280;45705;55.592;37.460;2023-04-16T04:13:06;100598.28;;;12.52;21.16
58295;BME280;45705;55.592;37.460;2023-04-16T04:15:33;100600.84;;;11.94;20.80
58295;BME280;45705;55.592;37.460;2023-04-16T04:17:59;100594.50;;;11.54;21.34
58295;BME280;45705;55.592;37.460;2023-04-16T04:20:24;100609.91;;;10.16;22.35
58295;BME280;45705;55.592;37.460;2023-04-16T04:22:51;100602.88;;;10.56;22.49
58295;BME280;45705;55.592;37.460;2023-04-16T04:25:20;100597.91;;;11.80;21.27
58295;BME280;45705;55.592;37.460;2023-04-16T04:27:45;100598.03;;;12.09;20.64
58295;BME280;45705;55.592;37.460;2023-04-16T04:30:11;100601.22;;;10.76;21.78
58295;BME280;45705;55.592;37.460;2023-04-16T04:32:39;100596.34;;;10.73;21.41
58295;BME280;45705;55.592;37.460;2023-04-16T04:35:06;100599.19;;;11.98;20.92
58295;BME280;45705;55.592;37.460;2023-04-16T04:37:31;100595.63;;;11.48;20.78
58295;BME280;45705;55.592;37.460;2023-04-16T04:39:58;100600.97;;;11.63;20.42
58295;BME280;45705;55.592;37.460;2023-04-16T04:42:24;100598.53;;;10.71;21.10
58295;BME280;45705;55.592;37.460;2023-04-16T04:44:50;100604.22;;;11.70;20.73
58295;BME280;45705;55.592;37.460;2023-04-16T04:47:16;100593.41;;;12.49;20.10
58295;BME280;45705;55.592;37.460;2023-04-16T04:49:42;100596.81;;;11.11;20.59
58295;BME280;45705;55.592;37.460;2023-04-16T04:52:07;100615.31;;;10.06;21.76
58295;BME280;45705;55.592;37.460;2023-04-16T04:54:33;100608.31;;;10.36;21.69
58295;BME280;45705;55.592;37.460;2023-04-16T04:56:59;100609.91;;;10.16;21.84
58295;BME280;45705;55.592;37.460;2023-04-16T04:59:27;100592.50;;;10.12;22.13
58295;BME280;45705;55.592;37.460;2023-04-16T05:01:53;100607.16;;;10.06;22.18
58295;BME280;45705;55.592;37.460;2023-04-16T05:04:19;100578.28;;;9.74;22.31
58295;BME280;45705;55.592;37.460;2023-04-16T05:06:44;100599.13;;;9.48;22.42
58295;BME280;45705;55.592;37.460;2023-04-16T05:09:10;100605.75;;;9.88;22.35
58295;BME280;45705;55.592;37.460;2023-04-16T05:11:40;100600.44;;;10.60;21.69
58295;BME280;45705;55.592;37.460;2023-04-16T05:14:06;100601.78;;;10.68;21.46
58295;BME280;45705;55.592;37.460;2023-04-16T05:16:35;100599.81;;;11.85;21.17
58295;BME280;45705;55.592;37.460;2023-04-16T05:19:00;100593.69;;;12.43;19.99
58295;BME280;45705;55.592;37.460;2023-04-16T05:21:26;100597.59;;;12.66;19.49
58295;BME280;45705;55.592;37.460;2023-04-16T05:23:52;100601.16;;;12.32;19.71
58295;BME280;45705;55.592;37.460;2023-04-16T05:26:18;100598.97;;;12.97;19.48
58295;BME280;45705;55.592;37.460;2023-04-16T05:28:43;100597.50;;;13.34;19.08
58295;BME280;45705;55.592;37.460;2023-04-16T05:31:09;100595.22;;;14.04;18.42
58295;BME280;45705;55.592;37.460;2023-04-16T05:33:35;100581.75;;;14.07;18.71
58295;BME280;45705;55.592;37.460;2023-04-16T05:36:00;100571.94;;;15.05;17.71
58295;BME280;45705;55.592;37.460;2023-04-16T05:38:26;100585.50;;;14.82;17.50
58295;BME280;45705;55.592;37.460;2023-04-16T05:40:52;100572.81;;;15.83;16.53
58295;BME280;45705;55.592;37.460;2023-04-16T05:43:17;100574.63;;;14.77;17.62
58295;BME280;45705;55.592;37.460;2023-04-16T05:45:43;100585.91;;;13.86;18.09
58295;BME280;45705;55.592;37.460;2023-04-16T05:48:09;100573.03;;;15.59;17.23
58295;BME280;45705;55.592;37.460;2023-04-16T05:50:35;100576.41;;;15.28;16.79
58295;BME280;45705;55.592;37.460;2023-04-16T05:53:01;100574.91;;;15.22;17.18
58295;BME280;45705;55.592;37.460;2023-04-16T05:55:27;100594.88;;;12.95;18.82
58295;BME280;45705;55.592;37.460;2023-04-16T05:57:53;100589.59;;;12.06;19.78
58295;BME280;45705;55.592;37.460;2023-04-16T06:00:19;100586.34;;;13.31;19.11
58295;BME280;45705;55.592;37.460;2023-04-16T06:02:45;100592.75;;;12.63;19.17
58295;BME280;45705;55.592;37.460;2023-04-16T06:05:10;100584.28;;;14.55;18.09
58295;BME280;45705;55.592;37.460;2023-04-16T06:07:37;100592.41;;;13.90;18.51
58295;BME280;45705;55.592;37.460;2023-04-16T06:10:02;100583.13;;;14.43;18.27
58295;BME280;45705;55.592;37.460;2023-04-16T06:12:28;100594.78;;;13.29;19.02
58295;BME280;45705;55.592;37.460;2023-04-16T06:14:54;100578.72;;;14.80;18.22
58295;BME280;45705;55.592;37.460;2023-04-16T06:17:20;100588.09;;;13.46;19.21
58295;BME280;45705;55.592;37.460;2023-04-16T06:19:47;100578.91;;;14.83;18.14
58295;BME280;45705;55.592;37.460;2023-04-16T06:22:12;100587.34;;;13.11;19.04
58295;BME280;45705;55.592;37.460;2023-04-16T06:24:38;100595.56;;;12.13;20.14
58295;BME280;45705;55.592;37.460;2023-04-16T06:27:04;100590.91;;;12.18;20.32
58295;BME280;45705;55.592;37.460;2023-04-16T06:29:29;100592.38;;;12.00;20.36
58295;BME280;45705;55.592;37.460;2023-04-16T06:31:55;100588.84;;;11.40;21.13
58295;BME280;45705;55.592;37.460;2023-04-16T06:34:21;100590.66;;;11.65;20.64
58295;BME280;45705;55.592;37.460;2023-04-16T06:36:47;100592.06;;;11.52;20.83
58295;BME280;45705;55.592;37.460;2023-04-16T06:39:13;100582.06;;;12.32;20.13
58295;BME280;45705;55.592;37.460;2023-04-16T06:41:39;100578.47;;;12.02;19.83
58295;BME280;45705;55.592;37.460;2023-04-16T06:44:04;100577.66;;;12.01;20.29
58295;BME280;45705;55.592;37.460;2023-04-16T06:46:30;100575.31;;;11.79;20.28
58295;BME280;45705;55.592;37.460;2023-04-16T06:48:56;100577.34;;;12.08;20.70
58295;BME280;45705;55.592;37.460;2023-04-16T06:51:22;100573.63;;;11.89;20.55
58295;BME280;45705;55.592;37.460;2023-04-16T06:53:48;100570.66;;;12.25;20.39
58295;BME280;45705;55.592;37.460;2023-04-16T06:56:14;100571.03;;;12.13;20.31
58295;BME280;45705;55.592;37.460;2023-04-16T06:58:39;100582.25;;;12.40;20.04
58295;BME280;45705;55.592;37.460;2023-04-16T07:01:05;100574.16;;;13.18;19.22
58295;BME280;45705;55.592;37.460;2023-04-16T07:03:31;100573.19;;;12.50;19.16
58295;BME280;45705;55.592;37.460;2023-04-16T07:05:57;100566.44;;;13.01;18.48
58295;BME280;45705;55.592;37.460;2023-04-16T07:08:23;100568.50;;;12.85;18.77
58295;BME280;45705;55.592;37.460;2023-04-16T07:10:49;100570.84;;;12.04;19.67
58295;BME280;45705;55.592;37.460;2023-04-16T07:13:15;100576.19;;;12.19;19.99
58295;BME280;45705;55.592;37.460;2023-04-16T07:15:42;100581.41;;;12.11;19.31
58295;BME280;45705;55.592;37.460;2023-04-16T07:18:08;100568.75;;;11.80;19.56
58295;BME280;45705;55.592;37.460;2023-04-16T07:20:34;100562.94;;;12.02;19.81
58295;BME280;45705;55.592;37.460;2023-04-16T07:23:00;100576.91;;;11.91;19.88
58295;BME280;45705;55.592;37.460;2023-04-16T07:25:26;100577.13;;;11.45;20.39
58295;BME280;45705;55.592;37.460;2023-04-16T07:27:52;100580.56;;;10.95;20.65
58295;BME280;45705;55.592;37.460;2023-04-16T07:30:17;100585.19;;;10.69;20.67
58295;BME280;45705;55.592;37.460;2023-04-16T07:32:43;100576.03;;;11.40;20.44
58295;BME280;45705;55.592;37.460;2023-04-16T07:35:09;100572.19;;;11.52;19.85
58295;BME280;45705;55.592;37.460;2023-04-16T07:37:35;100564.63;;;11.33;19.67
58295;BME280;45705;55.592;37.460;2023-04-16T07:40:01;100559.94;;;12.04;19.64
58295;BME280;45705;55.592;37.460;2023-04-16T07:42:28;100561.75;;;12.48;19.34
58295;BME280;45705;55.592;37.460;2023-04-16T07:44:54;100558.69;;;12.84;19.37
58295;BME280;45705;55.592;37.460;2023-04-16T07:47:19;100580.16;;;11.93;19.66
58295;BME280;45705;55.592;37.460;2023-04-16T07:49:48;100566.69;;;11.62;20.08
58295;BME280;45705;55.592;37.460;2023-04-16T07:52:14;100573.38;;;11.25;20.31
58295;BME280;45705;55.592;37.460;2023-04-16T07:54:40;100565.94;;;11.46;20.17
58295;BME280;45705;55.592;37.460;2023-04-16T07:57:06;100561.63;;;11.30;20.28
58295;BME280;45705;55.592;37.460;2023-04-16T07:59:32;100551.81;;;11.89;20.22
58295;BME280;45705;55.592;37.460;2023-04-16T08:01:57;100549.41;;;11.27;20.18
58295;BME280;45705;55.592;37.460;2023-04-16T08:04:23;100541.69;;;11.50;19.82
58295;BME280;45705;55.592;37.460;2023-04-16T08:06:52;100534.00;;;12.07;19.78
58295;BME280;45705;55.592;37.460;2023-04-16T08:09:19;100535.59;;;12.47;19.50
58295;BME280;45705;55.592;37.460;2023-04-16T08:11:45;100548.78;;;11.46;20.03
58295;BME280;45705;55.592;37.460;2023-04-16T08:14:14;100548.22;;;11.54;20.31
58295;BME280;45705;55.592;37.460;2023-04-16T08:16:40;100542.78;;;11.43;20.45
58295;BME280;45705;55.592;37.460;2023-04-16T08:19:06;100541.63;;;11.65;19.99
58295;BME280;45705;55.592;37.460;2023-04-16T08:21:32;100534.28;;;11.60;19.95
58295;BME280;45705;55.592;37.460;2023-04-16T08:23:58;100528.59;;;12.36;19.57
58295;BME280;45705;55.592;37.460;2023-04-16T08:26:23;100540.47;;;11.71;20.18
58295;BME280;45705;55.592;37.460;2023-04-16T08:28:49;100532.53;;;11.25;20.29
58295;BME280;45705;55.592;37.460;2023-04-16T08:31:15;100523.69;;;11.54;20.18
58295;BME280;45705;55.592;37.460;2023-04-16T08:33:41;100528.00;;;11.05;20.04
58295;BME280;45705;55.592;37.460;2023-04-16T08:36:07;100521.78;;;10.74;20.69
58295;BME280;45705;55.592;37.460;2023-04-16T08:38:33;100532.34;;;11.01;21.15
58295;BME280;45705;55.592;37.460;2023-04-16T08:41:02;100527.25;;;10.84;21.20
58295;BME280;45705;55.592;37.460;2023-04-16T08:43:33;100523.44;;;10.75;21.08
58295;BME280;45705;55.592;37.460;2023-04-16T08:46:00;100509.84;;;10.80;20.74
58295;BME280;45705;55.592;37.460;2023-04-16T08:48:32;100511.88;;;11.19;20.38
58295;BME280;45705;55.592;37.460;2023-04-16T08:51:00;100514.72;;;10.83;20.33
58295;BME280;45705;55.592;37.460;2023-04-16T08:53:35;100513.09;;;10.72;20.96
58295;BME280;45705;55.592;37.460;2023-04-16T08:56:04;100513.94;;;10.72;20.79
58295;BME280;45705;55.592;37.460;2023-04-16T08:58:31;100507.31;;;10.99;20.67
58295;BME280;45705;55.592;37.460;2023-04-16T09:01:01;100501.72;;;11.40;20.44
58295;BME280;45705;55.592;37.460;2023-04-16T09:03:28;100501.31;;;11.57;19.80
58295;BME280;45705;55.592;37.460;2023-04-16T09:05:55;100501.63;;;10.95;19.54
58295;BME280;45705;55.592;37.460;2023-04-16T09:08:24;100499.88;;;11.25;19.44
58295;BME280;45705;55.592;37.460;2023-04-16T09:10:50;100499.13;;;11.04;19.74
58295;BME280;45705;55.592;37.460;2023-04-16T09:13:16;100499.41;;;11.02;19.58
58295;BME280;45705;55.592;37.460;2023-04-16T09:15:45;100502.44;;;10.86;19.93
58295;BME280;45705;55.592;37.460;2023-04-16T09:18:11;100504.41;;;10.80;19.93
58295;BME280;45705;55.592;37.460;2023-04-16T09:20:37;100496.66;;;11.13;19.56
58295;BME280;45705;55.592;37.460;2023-04-16T09:23:04;100508.19;;;10.79;20.18
58295;BME280;45705;55.592;37.460;2023-04-16T09:25:48;100498.34;;;10.93;20.55
58295;BME280;45705;55.592;37.460;2023-04-16T09:28:43;100504.94;;;10.82;20.03
58295;BME280;45705;55.592;37.460;2023-04-16T09:31:17;100507.25;;;11.19;19.54
58295;BME280;45705;55.592;37.460;2023-04-16T09:34:00;100502.91;;;11.68;19.41
58295;BME280;45705;55.592;37.460;2023-04-16T09:36:27;100490.59;;;11.71;19.25
58295;BME280;45705;55.592;37.460;2023-04-16T09:38:53;100493.22;;;11.47;19.18
58295;BME280;45705;55.592;37.460;2023-04-16T09:41:24;100498.53;;;11.17;18.81
58295;BME280;45705;55.592;37.460;2023-04-16T09:43:54;100488.69;;;11.27;18.99
58295;BME280;45705;55.592;37.460;2023-04-16T09:46:21;100504.78;;;11.23;19.19
58295;BME280;45705;55.592;37.460;2023-04-16T09:48:46;100489.44;;;11.42;18.70
58295;BME280;45705;55.592;37.460;2023-04-16T09:51:12;100483.78;;;11.73;18.48
58295;BME280;45705;55.592;37.460;2023-04-16T09:53:38;100500.88;;;11.39;18.60
58295;BME280;45705;55.592;37.460;2023-04-16T09:56:05;100485.66;;;11.33;18.89
58295;BME280;45705;55.592;37.460;2023-04-16T09:58:31;100480.13;;;11.93;18.46
58295;BME280;45705;55.592;37.460;2023-04-16T10:01:07;100485.56;;;11.54;18.81
58295;BME280;45705;55.592;37.460;2023-04-16T10:03:35;100489.69;;;11.46;18.96
58295;BME280;45705;55.592;37.460;2023-04-16T10:06:14;100482.47;;;11.21;18.71
58295;BME280;45705;55.592;37.460;2023-04-16T10:08:48;100481.34;;;11.72;18.50
58295;BME280;45705;55.592;37.460;2023-04-16T10:11:14;100467.53;;;12.32;18.07
58295;BME280;45705;55.592;37.460;2023-04-16T10:13:40;100471.50;;;11.76;18.43
58295;BME280;45705;55.592;37.460;2023-04-16T10:16:09;100476.59;;;12.27;18.57
58295;BME280;45705;55.592;37.460;2023-04-16T10:18:39;100480.47;;;11.81;18.50
58295;BME280;45705;55.592;37.460;2023-04-16T10:21:05;100467.03;;;11.56;18.63
58295;BME280;45705;55.592;37.460;2023-04-16T10:23:32;100464.56;;;11.99;18.70
58295;BME280;45705;55.592;37.460;2023-04-16T10:25:59;100458.31;;;11.88;18.87
58295;BME280;45705;55.592;37.460;2023-04-16T10:28:24;100446.13;;;11.80;18.72
58295;BME280;45705;55.592;37.460;2023-04-16T10:30:52;100452.13;;;11.82;18.12
58295;BME280;45705;55.592;37.460;2023-04-16T10:33:20;100462.44;;;11.46;18.52
58295;BME280;45705;55.592;37.460;2023-04-16T10:35:46;100457.84;;;12.15;18.30
58295;BME280;45705;55.592;37.460;2023-04-16T10:38:25;100462.88;;;12.32;18.76
58295;BME280;45705;55.592;37.460;2023-04-16T10:41:20;100468.16;;;11.94;18.83
58295;BME280;45705;55.592;37.460;2023-04-16T10:43:47;100465.38;;;11.55;19.27
58295;BME280;45705;55.592;37.460;2023-04-16T10:46:24;100456.03;;;11.66;19.32
58295;BME280;45705;55.592;37.460;2023-04-16T10:48:55;100457.25;;;11.50;19.15
58295;BME280;45705;55.592;37.460;2023-04-16T10:53:54;100444.44;;;11.90;19.17
58295;BME280;45705;55.592;37.460;2023-04-16T10:56:25;100461.59;;;11.51;18.85
58295;BME280;45705;55.592;37.460;2023-04-16T10:58:53;100444.34;;;11.66;18.86
58295;BME280;45705;55.592;37.460;2023-04-16T11:01:31;100441.59;;;12.05;18.95
58295;BME280;45705;55.592;37.460;2023-04-16T11:04:00;100445.72;;;12.32;18.57
58295;BME280;45705;55.592;37.460;2023-04-16T11:06:29;100435.91;;;12.79;18.39
58295;BME280;45705;55.592;37.460;2023-04-16T11:08:57;100439.59;;;12.93;18.26
58295;BME280;45705;55.592;37.460;2023-04-16T11:11:23;100434.66;;;12.47;18.33
58295;BME280;45705;55.592;37.460;2023-04-16T11:13:53;100440.94;;;12.18;18.82
58295;BME280;45705;55.592;37.460;2023-04-16T11:16:19;100443.22;;;11.72;18.77
58295;BME280;45705;55.592;37.460;2023-04-16T11:18:45;100438.69;;;11.96;18.82
58295;BME280;45705;55.592;37.460;2023-04-16T11:21:11;100433.47;;;12.00;18.70
58295;BME280;45705;55.592;37.460;2023-04-16T11:23:51;100415.88;;;12.16;18.62
58295;BME280;45705;55.592;37.460;2023-04-16T11:26:25;100426.78;;;12.40;18.71
58295;BME280;45705;55.592;37.460;2023-04-16T11:28:52;100415.88;;;12.16;18.56
58295;BME280;45705;55.592;37.460;2023-04-16T11:31:18;100416.81;;;12.31;18.46
58295;BME280;45705;55.592;37.460;2023-04-16T11:33:44;100417.06;;;12.05;18.58
58295;BME280;45705;55.592;37.460;2023-04-16T11:36:10;100401.41;;;12.45;18.79
58295;BME280;45705;55.592;37.460;2023-04-16T11:38:37;100414.66;;;12.28;18.54
58295;BME280;45705;55.592;37.460;2023-04-16T11:41:03;100407.78;;;12.59;18.51
58295;BME280;45705;55.592;37.460;2023-04-16T11:43:29;100410.84;;;12.77;18.60
58295;BME280;45705;55.592;37.460;2023-04-16T11:45:59;100395.81;;;12.79;18.73
58295;BME280;45705;55.592;37.460;2023-04-16T11:48:48;100403.25;;;12.26;18.51
58295;BME280;45705;55.592;37.460;2023-04-16T11:51:14;100401.59;;;12.25;18.85
58295;BME280;45705;55.592;37.460;2023-04-16T11:53:52;100396.44;;;11.94;18.94
58295;BME280;45705;55.592;37.460;2023-04-16T11:56:29;100386.59;;;11.98;18.97
58295;BME280;45705;55.592;37.460;2023-04-16T11:59:13;100408.47;;;11.88;19.13
58295;BME280;45705;55.592;37.460;2023-04-16T12:01:41;100385.47;;;12.04;19.09
58295;BME280;45705;55.592;37.460;2023-04-16T12:04:10;100394.84;;;11.88;19.32
58295;BME280;45705;55.592;37.460;2023-04-16T12:06:36;100388.50;;;11.97;19.27
58295;BME280;45705;55.592;37.460;2023-04-16T12:09:24;100377.03;;;12.30;18.89
58295;BME280;45705;55.592;37.460;2023-04-16T12:11:50;100386.88;;;12.26;18.98
58295;BME280;45705;55.592;37.460;2023-04-16T12:14:15;100381.59;;;12.10;18.77
58295;BME280;45705;55.592;37.460;2023-04-16T12:16:41;100380.47;;;12.11;18.87
58295;BME280;45705;55.592;37.460;2023-04-16T12:19:10;100378.53;;;12.41;18.66
58295;BME280;45705;55.592;37.460;2023-04-16T12:21:38;100378.19;;;12.24;18.54
58295;BME280;45705;55.592;37.460;2023-04-16T12:24:06;100368.16;;;12.43;18.79
58295;BME280;45705;55.592;37.460;2023-04-16T12:26:55;100371.31;;;12.50;18.53
58295;BME280;45705;55.592;37.460;2023-04-16T12:29:23;100357.28;;;12.38;18.71
58295;BME280;45705;55.592;37.460;2023-04-16T12:31:51;100354.38;;;12.53;18.91
58295;BME280;45705;55.592;37.460;2023-04-16T12:34:18;100349.69;;;12.78;19.03
58295;BME280;45705;55.592;37.460;2023-04-16T12:36:45;100354.25;;;12.64;18.69
58295;BME280;45705;55.592;37.460;2023-04-16T12:39:12;100358.97;;;12.34;18.72
58295;BME280;45705;55.592;37.460;2023-04-16T12:41:40;100354.97;;;12.26;18.79
58295;BME280;45705;55.592;37.460;2023-04-16T12:44:14;100352.63;;;12.14;18.80
58295;BME280;45705;55.592;37.460;2023-04-16T12:46:41;100341.72;;;12.14;18.74